Terminal Aerodrome Forecast
Issued by NWS Charleston, WV

Home | Current Version | Previous Version | Text Only | Print | Product List | Glossary On
Versions: 1 2 3 4 5 6 7 8 9 10 11 12 13 14 15 16 17 18 19 20 21 22 23 24 25 26 27 28 29
000
FTUS41 KRLX 292300
TAFPKB
TAF
KPKB 292325Z 3000/3024 00000KT P6SM SCT060
     FM300500 00000KT 5SM BR SCT080
     FM300900 00000KT 2SM BR SCT080
     FM301200 00000KT 3SM BR BKN040
     FM301300 00000KT P6SM SCT050
     FM301500 25005KT P6SM VCSH BKN060
      AMD NOT SKED=

USA.gov is the U.S. government's official web portal to all federal, state and local government web resources and services.